sensor_id;sensor_type;location;lat;lon;timestamp;pressure;altitude;pressure_sealevel;temperature;humidity
55014;BME280;40916;51.632;5.552;2023-02-23T00:00:31;1008.4648119311024;;;8.053413769624473;0
55014;BME280;40916;51.632;5.552;2023-02-23T00:01:31;1008.4998534594847;;;8.07435159397108;0
55014;BME280;40916;51.632;5.552;2023-02-23T00:02:31;1008.4372697197095;;;8.04643352514936;0
55014;BME280;40916;51.632;5.552;2023-02-23T00:03:31;1008.4777139247245;;;8.060393529147238;0
55014;BME280;40916;51.632;5.552;2023-02-23T00:04:31;1008.4503561251051;;;8.067372803876513;0
55014;BME280;40916;51.632;5.552;2023-02-23T00:05:34;1008.4189713477276;;;8.04643352514936;0
55014;BME280;40916;51.632;5.552;2023-02-23T00:06:32;1008.4153116736851;;;8.04643352514936;0
55014;BME280;40916;51.632;5.552;2023-02-23T00:07:31;1008.2980122191656;;;8.032471580706332;0
55014;BME280;40916;51.632;5.552;2023-02-23T00:08:31;1008.4077990282653;;;8.032471580706332;0
55014;BME280;40916;51.632;5.552;2023-02-23T00:09:31;1008.4039386334589;;;8.018507694545931;0
55014;BME280;40916;51.632;5.552;2023-02-23T00:10:32;1008.4515114968788;;;8.018507694545931;0
55014;BME280;40916;51.632;5.552;2023-02-23T00:11:32;1008.4256861835481;;;8.004541865394813;0
55014;BME280;40916;51.632;5.552;2023-02-23T00:12:32;1008.4605559759325;;;8.011525022923838;0
55014;BME280;40916;51.632;5.552;2023-02-23T00:13:32;1008.4200898115372;;;7.997558221799512;0
55014;BME280;40916;51.632;5.552;2023-02-23T00:14:32;1008.4144916932605;;;7.990574091978527;0
55014;BME280;40916;51.632;5.552;2023-02-23T00:15:32;1008.4545178391652;;;7.976604373021512;0
55014;BME280;40916;51.632;5.552;2023-02-23T00:16:32;1008.4433078019105;;;7.962632707247078;0
55014;BME280;40916;51.632;5.552;2023-02-23T00:17:32;1008.5164879187173;;;7.962632707247078;0
55014;BME280;40916;51.632;5.552;2023-02-23T00:18:33;1008.4925844029012;;;7.955646143904065;0
55014;BME280;40916;51.632;5.552;2023-02-23T00:19:32;1008.5016097497528;;;7.948659093377433;0
55014;BME280;40916;51.632;5.552;2023-02-23T00:20:32;1008.5050187207671;;;7.934683530133654;0
55014;BME280;40916;51.632;5.552;2023-02-23T00:21:33;1008.5416065579383;;;7.934683530133654;0
55014;BME280;40916;51.632;5.552;2023-02-23T00:22:33;1008.3744835242671;;;7.899736085109357;0
55014;BME280;40916;51.632;5.552;2023-02-23T00:23:33;1008.4552381472533;;;7.913716527391092;0
55014;BME280;40916;51.632;5.552;2023-02-23T00:24:33;1008.4878970634843;;;7.899736085109357;0
55014;BME280;40916;51.632;5.552;2023-02-23T00:25:33;1008.4878970634843;;;7.899736085109357;0
55014;BME280;40916;51.632;5.552;2023-02-23T00:26:34;1008.4822722051379;;;7.892745131351525;0
55014;BME280;40916;51.632;5.552;2023-02-23T00:27:33;1008.4749553113659;;;7.892745131351525;0
55014;BME280;40916;51.632;5.552;2023-02-23T00:28:33;1008.4732630520575;;;7.899736085109357;0
55014;BME280;40916;51.632;5.552;2023-02-23T00:29:33;1008.4510368599081;;;7.885753688968453;0
55014;BME280;40916;51.632;5.552;2023-02-23T00:30:33;1008.4490672210331;;;7.878761757799612;0
55014;BME280;40916;51.632;5.552;2023-02-23T00:31:34;1008.5590996182121;;;7.892745131351525;0
55014;BME280;40916;51.632;5.552;2023-02-23T00:32:34;1008.4673588930483;;;7.878761757799612;0
55014;BME280;40916;51.632;5.552;2023-02-23T00:33:34;1008.4800202236911;;;7.871769337684405;0
55014;BME280;40916;51.632;5.552;2023-02-23T00:34:34;1008.44680527042;;;7.857783029972126;0
55014;BME280;40916;51.632;5.552;2023-02-23T00:35:34;1008.4597552331705;;;7.864776428462154;0
55014;BME280;40916;51.632;5.552;2023-02-23T00:36:34;1008.4631186600199;;;7.850789142053497;0
55014;BME280;40916;51.632;5.552;2023-02-23T00:37:34;1008.4538232389712;;;7.843794764545393;0
55014;BME280;40916;51.632;5.552;2023-02-23T00:38:34;1008.5258922633009;;;7.878761757799612;0
55014;BME280;40916;51.632;5.552;2023-02-23T00:39:34;1008.4740929931518;;;7.850789142053497;0
55014;BME280;40916;51.632;5.552;2023-02-23T00:40:35;1008.4121983491634;;;7.864776428462154;0
55014;BME280;40916;51.632;5.552;2023-02-23T00:41:34;1008.3314267451822;;;7.850789142053497;0
55014;BME280;40916;51.632;5.552;2023-02-23T00:42:34;1008.4504634367493;;;7.857783029972126;0
55014;BME280;40916;51.632;5.552;2023-02-23T00:43:35;1008.4172426985126;;;7.843794764545393;0
55014;BME280;40916;51.632;5.552;2023-02-23T00:44:35;1008.3859982142891;;;7.8367998972868556;0
55014;BME280;40916;51.632;5.552;2023-02-23T00:45:35;1008.3457602597679;;;7.8367998972868556;0
55014;BME280;40916;51.632;5.552;2023-02-23T00:46:35;1008.429894180941;;;7.8367998972868556;0
55014;BME280;40916;51.632;5.552;2023-02-23T00:47:35;1008.4076376799254;;;7.822808692874322;0
55014;BME280;40916;51.632;5.552;2023-02-23T00:48:35;1008.3015590549634;;;7.822808692874322;0
55014;BME280;40916;51.632;5.552;2023-02-23T00:49:35;1008.3457602597679;;;7.8367998972868556;0
55014;BME280;40916;51.632;5.552;2023-02-23T00:50:35;1008.4388854056581;;;7.829804540116864;0
55014;BME280;40916;51.632;5.552;2023-02-23T00:51:35;1008.3670859591865;;;7.808815527526853;0
55014;BME280;40916;51.632;5.552;2023-02-23T00:52:35;1008.382032485515;;;7.822808692874322;0
55014;BME280;40916;51.632;5.552;2023-02-23T00:53:36;1008.4318749132816;;;7.843794764545393;0
55014;BME280;40916;51.632;5.552;2023-02-23T00:54:36;1008.356112643343;;;7.808815527526853;0
55014;BME280;40916;51.632;5.552;2023-02-23T00:55:39;1008.3541235682956;;;7.801818209099384;0
55014;BME280;40916;51.632;5.552;2023-02-23T00:56:36;1008.4000059130813;;;7.808815527526853;0
55014;BME280;40916;51.632;5.552;2023-02-23T00:57:36;1008.3557902814571;;;7.794820399954279;0
55014;BME280;40916;51.632;5.552;2023-02-23T00:58:36;1008.3557902814571;;;7.794820399954279;0
55014;BME280;40916;51.632;5.552;2023-02-23T00:59:36;1008.3704209217968;;;7.794820399954279;0
55014;BME280;40916;51.632;5.552;2023-02-23T01:00:36;1008.3514649811783;;;7.766824252967474;0
55014;BME280;40916;51.632;5.552;2023-02-23T01:01:36;1008.3840355025436;;;7.752823230967234;0
55014;BME280;40916;51.632;5.552;2023-02-23T01:02:36;1008.3783734999793;;;7.745821982274158;0
55014;BME280;40916;51.632;5.552;2023-02-23T01:03:37;1008.3886212539068;;;7.717812065769259;0
55014;BME280;40916;51.632;5.552;2023-02-23T01:04:36;1008.3573510049096;;;7.710808355399273;0
55014;BME280;40916;51.632;5.552;2023-02-23T01:05:36;1008.3862294761045;;;7.696799456030931;0
55014;BME280;40916;51.632;5.552;2023-02-23T01:06:37;1008.3716019688604;;;7.696799456030931;0
55014;BME280;40916;51.632;5.552;2023-02-23T01:07:37;1008.3992184285561;;;7.703804152207287;0
55014;BME280;40916;51.632;5.552;2023-02-23T01:08:38;1008.3805526237563;;;7.689794266707761;0
55014;BME280;40916;51.632;5.552;2023-02-23T01:09:37;1008.4171208381676;;;7.689794266707761;0
55014;BME280;40916;51.632;5.552;2023-02-23T01:10:38;1008.3931578290708;;;7.682788584075261;0
55014;BME280;40916;51.632;5.552;2023-02-23T01:11:37;1008.4589796225265;;;7.682788584075261;0
55014;BME280;40916;51.632;5.552;2023-02-23T01:12:37;1008.3874771610805;;;7.675782407970843;0
55014;BME280;40916;51.632;5.552;2023-02-23T01:13:38;1008.4443525540162;;;7.682788584075261;0
55014;BME280;40916;51.632;5.552;2023-02-23T01:14:37;1008.4277009676604;;;7.675782407970843;0
55014;BME280;40916;51.632;5.552;2023-02-23T01:15:40;1008.3444215800214;;;7.640744119674501;0
55014;BME280;40916;51.632;5.552;2023-02-23T01:16:37;1008.414303040396;;;7.654760917199162;0
55014;BME280;40916;51.632;5.552;2023-02-23T01:17:38;1008.4581815508024;;;7.654760917199162;0
55014;BME280;40916;51.632;5.552;2023-02-23T01:18:38;1008.4468015963643;;;7.640744119674501;0
55014;BME280;40916;51.632;5.552;2023-02-23T01:19:38;1008.4065808646475;;;7.640744119674501;0
55014;BME280;40916;51.632;5.552;2023-02-23T01:20:38;1008.4541144582073;;;7.640744119674501;0
55014;BME280;40916;51.632;5.552;2023-02-23T01:21:40;1008.4541144582073;;;7.640744119674501;0
55014;BME280;40916;51.632;5.552;2023-02-23T01:22:38;1008.4468015963643;;;7.640744119674501;0
55014;BME280;40916;51.632;5.552;2023-02-23T01:23:38;1008.4740163396178;;;7.633734979320273;0
55014;BME280;40916;51.632;5.552;2023-02-23T01:24:38;1008.352936906175;;;7.619715214612594;0
55014;BME280;40916;51.632;5.552;2023-02-23T01:25:39;1008.3911145894592;;;7.612704589932751;0
55014;BME280;40916;51.632;5.552;2023-02-23T01:26:39;1008.4423014685706;;;7.612704589932751;0
55014;BME280;40916;51.632;5.552;2023-02-23T01:27:39;1008.4638045450274;;;7.598681855104548;0
55014;BME280;40916;51.632;5.552;2023-02-23T01:28:38;1008.4455240712298;;;7.598681855104548;0
55014;BME280;40916;51.632;5.552;2023-02-23T01:29:38;1008.4300100775891;;;7.570630438997068;0
55014;BME280;40916;51.632;5.552;2023-02-23T01:30:39;1008.4336659473428;;;7.570630438997068;0
55014;BME280;40916;51.632;5.552;2023-02-23T01:31:40;1008.4498897917593;;;7.563616345171845;0
55014;BME280;40916;51.632;5.552;2023-02-23T01:32:39;1008.4702246513541;;;7.570630438997068;0
55014;BME280;40916;51.632;5.552;2023-02-23T01:33:39;1008.3998442010054;;;7.542571085559505;0
55014;BME280;40916;51.632;5.552;2023-02-23T01:34:39;1008.4546788801664;;;7.542571085559505;0
55014;BME280;40916;51.632;5.552;2023-02-23T01:35:39;1008.4635824203582;;;7.535555005763335;0
55014;BME280;40916;51.632;5.552;2023-02-23T01:36:40;1008.4046177944947;;;7.521521355298447;0
55014;BME280;40916;51.632;5.552;2023-02-23T01:37:40;1008.5972491699339;;;7.542571085559505;0
55014;BME280;40916;51.632;5.552;2023-02-23T01:38:39;1008.515867645685;;;7.514503784301322;0
55014;BME280;40916;51.632;5.552;2023-02-23T01:39:39;1008.5236612296665;;;7.528538429064373;0
55014;BME280;40916;51.632;5.552;2023-02-23T01:40:41;1008.4960047378624;;;7.521521355298447;0
55014;BME280;40916;51.632;5.552;2023-02-23T01:41:40;1008.4720025692404;;;7.514503784301322;0
55014;BME280;40916;51.632;5.552;2023-02-23T01:42:40;1008.4370330914138;;;7.507485715908686;0
55014;BME280;40916;51.632;5.552;2023-02-23T01:43:53;1008.4715136127919;;;7.500467149956151;0
55014;BME280;40916;51.632;5.552;2023-02-23T01:45:16;1008.4255755460855;;;7.493448086279262;0
55014;BME280;40916;51.632;5.552;2023-02-23T01:45:40;1008.3796369515971;;;7.486428524713492;0
55014;BME280;40916;51.632;5.552;2023-02-23T01:46:41;1008.5112240446756;;;7.486428524713492;0
55014;BME280;40916;51.632;5.552;2023-02-23T01:47:40;1008.4960979124285;;;7.47238790725682;0
55014;BME280;40916;51.632;5.552;2023-02-23T01:48:40;1008.5248245695115;;;7.4583452962684476;0
55014;BME280;40916;51.632;5.552;2023-02-23T01:49:40;1008.5023735495595;;;7.444300690429529;0
55014;BME280;40916;51.632;5.552;2023-02-23T01:50:42;1008.4689518235367;;;7.43025408842005;0
55014;BME280;40916;51.632;5.552;2023-02-23T01:51:41;1008.5457015726274;;;7.43025408842005;0
55014;BME280;40916;51.632;5.552;2023-02-23T01:52:41;1008.5785943381209;;;7.43025408842005;0
55014;BME280;40916;51.632;5.552;2023-02-23T01:53:50;1008.5232355957373;;;7.416205488918834;0
55014;BME280;40916;51.632;5.552;2023-02-23T01:54:42;1008.4986606753498;;;7.39512884147706;0
55014;BME280;40916;51.632;5.552;2023-02-23T01:55:41;1008.5007631517782;;;7.402154890603541;0
55014;BME280;40916;51.632;5.552;2023-02-23T01:56:42;1008.5467187133297;;;7.409180439695639;0
55014;BME280;40916;51.632;5.552;2023-02-23T01:57:41;1008.5592355688309;;;7.402154890603541;0
55014;BME280;40916;51.632;5.552;2023-02-23T01:58:44;1008.5644411344753;;;7.39512884147706;0
55014;BME280;40916;51.632;5.552;2023-02-23T01:59:42;1008.5498232513759;;;7.39512884147706;0
55014;BME280;40916;51.632;5.552;2023-02-23T02:00:42;1008.6338761049005;;;7.39512884147706;0
55014;BME280;40916;51.632;5.552;2023-02-23T02:01:42;1008.5769534057661;;;7.388102292150652;0
55014;BME280;40916;51.632;5.552;2023-02-23T02:02:42;1008.5790590194566;;;7.39512884147706;0
55014;BME280;40916;51.632;5.552;2023-02-23T02:03:42;1008.6317696476722;;;7.388102292150652;0
55014;BME280;40916;51.632;5.552;2023-02-23T02:04:42;1008.6223525684334;;;7.381075242458696;0
55014;BME280;40916;51.632;5.552;2023-02-23T02:05:42;1008.5727364759395;;;7.3740476922354965;0
55014;BME280;40916;51.632;5.552;2023-02-23T02:06:43;1008.6208063971737;;;7.388102292150652;0
55014;BME280;40916;51.632;5.552;2023-02-23T02:07:44;1008.6254388697753;;;7.367019641315284;0
55014;BME280;40916;51.632;5.552;2023-02-23T02:08:44;1008.6515874564734;;;7.381075242458696;0
55014;BME280;40916;51.632;5.552;2023-02-23T02:09:43;1008.6077351272365;;;7.381075242458696;0
55014;BME280;40916;51.632;5.552;2023-02-23T02:10:43;1008.6092795094414;;;7.3740476922354965;0
55014;BME280;40916;51.632;5.552;2023-02-23T02:11:43;1008.6844767145168;;;7.381075242458696;0
55014;BME280;40916;51.632;5.552;2023-02-23T02:12:43;1008.5763907787604;;;7.3740476922354965;0
55014;BME280;40916;51.632;5.552;2023-02-23T02:13:43;1008.5529197395099;;;7.381075242458696;0
55014;BME280;40916;51.632;5.552;2023-02-23T02:14:43;1008.5252305499716;;;7.3740476922354965;0
55014;BME280;40916;51.632;5.552;2023-02-23T02:15:48;1008.6406243725762;;;7.381075242458696;0
55014;BME280;40916;51.632;5.552;2023-02-23T02:16:47;1008.4536893305545;;;7.367019641315284;0
55014;BME280;40916;51.632;5.552;2023-02-23T02:17:44;1008.6552418180075;;;7.381075242458696;0
55014;BME280;40916;51.632;5.552;2023-02-23T02:20:48;1008.5408178824947;;;7.352962036720392;0
55014;BME280;40916;51.632;5.552;2023-02-23T02:20:52;1008.5800450816988;;;7.3740476922354965;0
55014;BME280;40916;51.632;5.552;2023-02-23T02:21:48;1008.5262013506889;;;7.352962036720392;0
55014;BME280;40916;51.632;5.552;2023-02-23T02:23:00;1008.5737050859383;;;7.352962036720392;0
55014;BME280;40916;51.632;5.552;2023-02-23T02:23:50;1008.5758203203264;;;7.3599910895322225;0
55014;BME280;40916;51.632;5.552;2023-02-23T02:24:51;1008.546009405395;;;7.345932482713806;0
55014;BME280;40916;51.632;5.552;2023-02-23T02:25:48;1008.527154349094;;;7.331871870452055;0
55014;BME280;40916;51.632;5.552;2023-02-23T02:26:48;1008.5161924571255;;;7.331871870452055;0
55014;BME280;40916;51.632;5.552;2023-02-23T02:27:50;1008.5965796894736;;;7.331871870452055;0
55014;BME280;40916;51.632;5.552;2023-02-23T02:28:55;1008.5740619164816;;;7.317809251417607;0
55014;BME280;40916;51.632;5.552;2023-02-23T02:29:53;1008.5886773305018;;;7.317809251417607;0
55014;BME280;40916;51.632;5.552;2023-02-23T02:30:51;1008.5420999213417;;;7.296711557256234;0
55014;BME280;40916;51.632;5.552;2023-02-23T02:31:49;1008.5274851878618;;;7.296711557256234;0
55014;BME280;40916;51.632;5.552;2023-02-23T02:33:04;1008.541487274463;;;7.282643915466338;0
55014;BME280;40916;51.632;5.552;2023-02-23T02:33:51;1008.549407288787;;;7.296711557256234;0
55014;BME280;40916;51.632;5.552;2023-02-23T02:34:53;1008.5320442178755;;;7.275609340366746;0
55014;BME280;40916;51.632;5.552;2023-02-23T02:36:47;1008.4284959846876;;;7.247466008044658;0
55014;BME280;40916;51.632;5.552;2023-02-23T02:37:49;1008.5307880481892;;;7.247466008044658;0
55014;BME280;40916;51.632;5.552;2023-02-23T02:38:48;1008.5475450972592;;;7.254502596247626;0
55014;BME280;40916;51.632;5.552;2023-02-23T02:39:47;1008.5426111945801;;;7.226353220606686;0
55014;BME280;40916;51.632;5.552;2023-02-23T02:40:48;1008.568183046293;;;7.226353220606686;0
55014;BME280;40916;51.632;5.552;2023-02-23T02:41:48;1008.5974080267322;;;7.226353220606686;0
55014;BME280;40916;51.632;5.552;2023-02-23T02:42:49;1008.6397435306288;;;7.233391320391391;0
55014;BME280;40916;51.632;5.552;2023-02-23T02:43:47;1008.5989086573971;;;7.219314616626871;0
55014;BME280;40916;51.632;5.552;2023-02-23T02:44:49;1008.5550718640552;;;7.219314616626871;0
55014;BME280;40916;51.632;5.552;2023-02-23T02:45:47;1008.5550718640552;;;7.219314616626871;0
55014;BME280;40916;51.632;5.552;2023-02-23T02:46:47;1008.5477657334771;;;7.219314616626871;0
55014;BME280;40916;51.632;5.552;2023-02-23T02:47:48;1008.4478188282353;;;7.191155155407682;0
55014;BME280;40916;51.632;5.552;2023-02-23T02:48:47;1008.5696841266218;;;7.219314616626871;0
55014;BME280;40916;51.632;5.552;2023-02-23T02:49:48;1008.5690272579785;;;7.205235895412297;0
55014;BME280;40916;51.632;5.552;2023-02-23T02:50:49;1008.5733371925573;;;7.219314616626871;0
55014;BME280;40916;51.632;5.552;2023-02-23T02:51:47;1008.5361506827509;;;7.205235895412297;0
55014;BME280;40916;51.632;5.552;2023-02-23T02:52:48;1008.596754252352;;;7.212275508284563;0
55014;BME280;40916;51.632;5.552;2023-02-23T02:53:50;1008.5982508883959;;;7.205235895412297;0
55014;BME280;40916;51.632;5.552;2023-02-23T02:54:48;1008.5756681915038;;;7.191155155407682;0
55014;BME280;40916;51.632;5.552;2023-02-23T02:55:48;1008.6055567971755;;;7.205235895412297;0
55014;BME280;40916;51.632;5.552;2023-02-23T02:56:48;1008.5135699113627;;;7.191155155407682;0
55014;BME280;40916;51.632;5.552;2023-02-23T02:57:48;1008.4982880632812;;;7.177072395271836;0
55014;BME280;40916;51.632;5.552;2023-02-23T02:58:48;1008.5698535717387;;;7.18411402794003;0
55014;BME280;40916;51.632;5.552;2023-02-23T02:59:48;1008.5457735107505;;;7.177072395271836;0
55014;BME280;40916;51.632;5.552;2023-02-23T03:00:48;1008.5289975557181;;;7.170030257235265;0
55014;BME280;40916;51.632;5.552;2023-02-23T03:01:48;1008.6261335440214;;;7.177072395271836;0
55014;BME280;40916;51.632;5.552;2023-02-23T03:02:48;1008.5611873004492;;;7.155944464385275;0
55014;BME280;40916;51.632;5.552;2023-02-23T03:03:48;1008.6071881370171;;;7.162987613662402;0
55014;BME280;40916;51.632;5.552;2023-02-23T03:04:49;1008.5546674691524;;;7.134811980647349;0
55014;BME280;40916;51.632;5.552;2023-02-23T03:05:49;1008.5707520252585;;;7.127766806871847;0
55014;BME280;40916;51.632;5.552;2023-02-23T03:06:51;1008.6664161090899;;;7.141856648045916;0
55014;BME280;40916;51.632;5.552;2023-02-23T03:07:51;1008.5948437665932;;;7.134811980647349;0
55014;BME280;40916;51.632;5.552;2023-02-23T03:08:49;1008.5634473570068;;;7.127766806871847;0
55014;BME280;40916;51.632;5.552;2023-02-23T03:09:50;1008.5217959636394;;;7.134811980647349;0
55014;BME280;40916;51.632;5.552;2023-02-23T03:10:50;1008.5064840038905;;;7.120721126551047;0
55014;BME280;40916;51.632;5.552;2023-02-23T03:11:51;1008.6240629009347;;;7.134811980647349;0
55014;BME280;40916;51.632;5.552;2023-02-23T03:12:53;1008.5451856884341;;;7.127766806871847;0
55014;BME280;40916;51.632;5.552;2023-02-23T03:13:52;1008.6072753735663;;;7.127766806871847;0
55014;BME280;40916;51.632;5.552;2023-02-23T03:14:51;1008.5101362798168;;;7.120721126551047;0
55014;BME280;40916;51.632;5.552;2023-02-23T03:15:53;1008.5451856884341;;;7.127766806871847;0
55014;BME280;40916;51.632;5.552;2023-02-23T03:16:51;1008.6320660199752;;;7.148900809235823;0
55014;BME280;40916;51.632;5.552;2023-02-23T03:17:52;1008.6131057246755;;;7.134811980647349;0
55014;BME280;40916;51.632;5.552;2023-02-23T03:18:54;1008.602845982793;;;7.148900809235823;0
55014;BME280;40916;51.632;5.552;2023-02-23T03:19:52;1008.5656246397717;;;7.134811980647349;0
55014;BME280;40916;51.632;5.552;2023-02-23T03:20:51;1008.61162937342;;;7.141856648045916;0
55014;BME280;40916;51.632;5.552;2023-02-23T03:21:52;1008.6043244773283;;;7.141856648045916;0
55014;BME280;40916;51.632;5.552;2023-02-23T03:22:52;1008.6532820427965;;;7.134811980647349;0
55014;BME280;40916;51.632;5.552;2023-02-23T03:24:03;1008.645977256626;;;7.134811980647349;0
55014;BME280;40916;51.632;5.552;2023-02-23T03:24:52;1008.6072753735663;;;7.127766806871847;0
55014;BME280;40916;51.632;5.552;2023-02-23T03:25:53;1008.6109277090432;;;7.127766806871847;0
55014;BME280;40916;51.632;5.552;2023-02-23T03:26:52;1008.645977256626;;;7.134811980647349;0
55014;BME280;40916;51.632;5.552;2023-02-23T03:27:51;1008.6401463970891;;;7.127766806871847;0
55014;BME280;40916;51.632;5.552;2023-02-23T03:28:54;1008.6291893881908;;;7.127766806871847;0
55014;BME280;40916;51.632;5.552;2023-02-23T03:29:52;1008.5853613631716;;;7.127766806871847;0
55014;BME280;40916;51.632;5.552;2023-02-23T03:30:53;1008.6313676856952;;;7.134811980647349;0
55014;BME280;40916;51.632;5.552;2023-02-23T03:31:52;1008.6715440102788;;;7.134811980647349;0
55014;BME280;40916;51.632;5.552;2023-02-23T03:32:52;1008.6124000534606;;;7.120721126551047;0
55014;BME280;40916;51.632;5.552;2023-02-23T03:33:54;1008.6532820427965;;;7.134811980647349;0
55014;BME280;40916;51.632;5.552;2023-02-23T03:34:52;1008.6730174301294;;;7.127766806871847;0
55014;BME280;40916;51.632;5.552;2023-02-23T03:35:54;1008.6087477742443;;;7.120721126551047;0
55014;BME280;40916;51.632;5.552;2023-02-23T03:36:53;1008.6379660112647;;;7.120721126551047;0
55014;BME280;40916;51.632;5.552;2023-02-23T03:37:53;1008.7073593543248;;;7.120721126551047;0
55014;BME280;40916;51.632;5.552;2023-02-23T03:38:53;1008.6671842558044;;;7.120721126551047;0
55014;BME280;40916;51.632;5.552;2023-02-23T03:39:54;1008.7022361341552;;;7.127766806871847;0
55014;BME280;40916;51.632;5.552;2023-02-23T03:40:52;1008.7299823259622;;;7.134811980647349;0
55014;BME280;40916;51.632;5.552;2023-02-23T03:41:55;1008.6591646542048;;;7.106628245599779;0
55014;BME280;40916;51.632;5.552;2023-02-23T03:42:53;1008.7117203490799;;;7.134811980647349;0
55014;BME280;40916;51.632;5.552;2023-02-23T03:43:54;1008.7592014950842;;;7.134811980647349;0
55014;BME280;40916;51.632;5.552;2023-02-23T03:44:53;1008.7584913184573;;;7.120721126551047;0
55014;BME280;40916;51.632;5.552;2023-02-23T03:45:53;1008.7584913184573;;;7.120721126551047;0
55014;BME280;40916;51.632;5.552;2023-02-23T03:46:53;1008.6613492746286;;;7.113674939516525;0
55014;BME280;40916;51.632;5.552;2023-02-23T03:47:53;1008.6905670746917;;;7.113674939516525;0
55014;BME280;40916;51.632;5.552;2023-02-23T03:48:53;1008.6657458173057;;;7.092533336445218;0
55014;BME280;40916;51.632;5.552;2023-02-23T03:49:53;1008.7504688947224;;;7.106628245599779;0
55014;BME280;40916;51.632;5.552;2023-02-23T03:50:54;1008.7942949562529;;;7.106628245599779;0
55014;BME280;40916;51.632;5.552;2023-02-23T03:51:54;1008.7373246002594;;;7.099581044632227;0
55014;BME280;40916;51.632;5.552;2023-02-23T03:52:55;1008.7095704944242;;;7.092533336445218;0
55014;BME280;40916;51.632;5.552;2023-02-23T03:53:55;1008.7796862671963;;;7.106628245599779;0
55014;BME280;40916;51.632;5.552;2023-02-23T03:54:55;1008.7848020967;;;7.099581044632227;0
55014;BME280;40916;51.632;5.552;2023-02-23T03:55:54;1008.7497431299769;;;7.092533336445218;0
55014;BME280;40916;51.632;5.552;2023-02-23T03:56:54;1008.7570472470592;;;7.092533336445218;0
55014;BME280;40916;51.632;5.552;2023-02-23T03:57:54;1008.774573075521;;;7.078436397737843;0
55014;BME280;40916;51.632;5.552;2023-02-23T03:58:55;1008.7636172363539;;;7.078436397737843;0
55014;BME280;40916;51.632;5.552;2023-02-23T03:59:56;1008.79137531231;;;7.085485120870022;0
55014;BME280;40916;51.632;5.552;2023-02-23T04:00:55;1008.7044458699431;;;7.0643374281269296;0
55014;BME280;40916;51.632;5.552;2023-02-23T04:01:54;1008.7227050295991;;;7.0643374281269296;0
55014;BME280;40916;51.632;5.552;2023-02-23T04:02:54;1008.6985951161032;;;7.057287181310219;0
55014;BME280;40916;51.632;5.552;2023-02-23T04:03:55;1008.7920898630736;;;7.0643374281269296;0
55014;BME280;40916;51.632;5.552;2023-02-23T04:04:55;1008.7533717559345;;;7.057287181310219;0
55014;BME280;40916;51.632;5.552;2023-02-23T04:05:55;1008.8030453669724;;;7.0643374281269296;0
55014;BME280;40916;51.632;5.552;2023-02-23T04:06:56;1008.7811343602322;;;7.0643374281269296;0
55014;BME280;40916;51.632;5.552;2023-02-23T04:07:55;1008.6868881738526;;;7.043185162808779;0
55014;BME280;40916;51.632;5.552;2023-02-23T04:08:55;1008.7679788643529;;;7.057287181310219;0
55014;BME280;40916;51.632;5.552;2023-02-23T04:09:55;1008.7986424389488;;;7.050236426260561;0
55014;BME280;40916;51.632;5.552;2023-02-23T04:10:57;1008.8037414191724;;;7.043185162808779;0
55014;BME280;40916;51.632;5.552;2023-02-23T04:11:56;1008.745995533008;;;7.022028320347772;0
55014;BME280;40916;51.632;5.552;2023-02-23T04:12:57;1008.7847205036072;;;7.02908111002175;0
55014;BME280;40916;51.632;5.552;2023-02-23T04:13:57;1008.7532985229805;;;7.022028320347772;0
55014;BME280;40916;51.632;5.552;2023-02-23T04:14:56;1008.819793078101;;;7.036133390785615;0
55014;BME280;40916;51.632;5.552;2023-02-23T04:15:56;1008.7898134798891;;;7.022028320347772;0
55014;BME280;40916;51.632;5.552;2023-02-23T04:16:56;1008.7729956656224;;;7.014975021594211;0
55014;BME280;40916;51.632;5.552;2023-02-23T04:17:56;1008.804419465941;;;7.022028320347772;0
55014;BME280;40916;51.632;5.552;2023-02-23T04:18:56;1008.8058586247379;;;7.014975021594211;0